createdAt,value
2024-04-12T00:00:00.995Z,89810.00
2024-04-12T00:01:00.987Z,89809.00
2024-04-12T00:02:00.971Z,89807.00
2024-04-12T00:03:01.009Z,89806.00
2024-04-12T00:04:00.996Z,89804.00
2024-04-12T00:05:00.968Z,89802.00
2024-04-12T00:06:01.058Z,89802.00
2024-04-12T00:07:00.949Z,89801.00
2024-04-12T00:08:00.970Z,89798.00
2024-04-12T00:09:00.996Z,89797.00
2024-04-12T00:10:00.953Z,89798.00
2024-04-12T00:11:00.991Z,89797.00
2024-04-12T00:12:01.041Z,89797.00
2024-04-12T00:13:00.955Z,89799.00
2024-04-12T00:14:00.954Z,89799.00
2024-04-12T00:15:01.011Z,89799.00
2024-04-12T00:16:01.075Z,89798.00
2024-04-12T00:17:00.979Z,89799.00
2024-04-12T00:18:00.980Z,89798.00
2024-04-12T00:19:00.969Z,89799.00
2024-04-12T00:20:00.971Z,89798.00
2024-04-12T00:21:01.150Z,89795.00
2024-04-12T00:22:01.140Z,89796.00
2024-04-12T00:23:00.969Z,89795.00
2024-04-12T00:24:01.104Z,89797.00
2024-04-12T00:25:00.975Z,89799.00
2024-04-12T00:26:01.005Z,89801.00
2024-04-12T00:27:01.039Z,89802.00
2024-04-12T00:28:00.977Z,89802.00
2024-04-12T00:29:01.005Z,89803.00
2024-04-12T00:30:01.087Z,89806.00
2024-04-12T00:31:01.085Z,89807.00
2024-04-12T00:32:01.100Z,89809.00
2024-04-12T00:33:01.329Z,89810.00
2024-04-12T00:34:01.295Z,89811.00
2024-04-12T00:35:01.292Z,89810.00
2024-04-12T00:36:01.366Z,89812.00
2024-04-12T00:37:01.377Z,89810.00
2024-04-12T00:38:01.428Z,89811.00
2024-04-12T00:39:01.645Z,89811.00
2024-04-12T00:40:01.592Z,89812.00
2024-04-12T00:41:01.639Z,89812.00
2024-04-12T00:42:01.758Z,89812.00
2024-04-12T00:43:01.787Z,89811.00
2024-04-12T00:44:01.830Z,89809.00
2024-04-12T00:45:01.948Z,89811.00
2024-04-12T00:46:01.956Z,89808.00
2024-04-12T00:47:02.043Z,89808.00
2024-04-12T00:48:02.384Z,89809.00
2024-04-12T00:49:02.238Z,89810.00
2024-04-12T00:50:02.269Z,89810.00
2024-04-12T00:51:02.393Z,89811.00
2024-04-12T00:52:02.355Z,89813.00
2024-04-12T00:53:02.435Z,89814.00
2024-04-12T00:54:02.610Z,89815.00
2024-04-12T00:55:02.613Z,89814.00
2024-04-12T00:56:02.635Z,89813.00
2024-04-12T00:57:02.770Z,89812.00
2024-04-12T00:58:02.777Z,89810.00
2024-04-12T00:59:02.852Z,89809.00
2024-04-12T01:00:03.118Z,89810.00
2024-04-12T01:01:02.984Z,89807.00
2024-04-12T01:02:02.994Z,89805.00
2024-04-12T01:03:03.099Z,89804.00
2024-04-12T01:04:03.077Z,89802.00
2024-04-12T01:05:03.089Z,89801.00
2024-04-12T01:06:03.146Z,89801.00
2024-04-12T01:07:03.210Z,89802.00
2024-04-12T01:08:03.275Z,89802.00
2024-04-12T01:09:03.392Z,89802.00
2024-04-12T01:10:03.403Z,89802.00
2024-04-12T01:11:03.419Z,89804.00
2024-04-12T01:12:03.559Z,89806.00
2024-04-12T01:13:04.077Z,89808.00
2024-04-12T01:14:03.486Z,89807.00
2024-04-12T01:15:03.615Z,89808.00
2024-04-12T01:16:03.579Z,89806.00
2024-04-12T01:17:03.660Z,89804.00
2024-04-12T01:18:03.736Z,89804.00
2024-04-12T01:19:03.810Z,89803.00
2024-04-12T01:20:03.834Z,89803.00
2024-04-12T01:21:03.941Z,89800.00
2024-04-12T01:22:03.964Z,89800.00
2024-04-12T01:23:04.023Z,89798.00
2024-04-12T01:24:04.140Z,89796.00
2024-04-12T01:25:04.128Z,89794.00
2024-04-12T01:26:04.191Z,89793.00
2024-04-12T01:27:04.299Z,89792.00
2024-04-12T01:28:04.340Z,89792.00
2024-04-12T01:29:04.312Z,89789.00
2024-04-12T01:30:04.469Z,89789.00
2024-04-12T01:31:04.399Z,89786.00
2024-04-12T01:32:04.447Z,89783.00
2024-04-12T01:33:04.531Z,89782.00
2024-04-12T01:34:04.496Z,89783.00
2024-04-12T01:35:04.561Z,89781.00
2024-04-12T01:36:04.637Z,89780.00
2024-04-12T01:37:04.616Z,89779.00
2024-04-12T01:38:04.634Z,89776.00
2024-04-12T01:39:04.709Z,89775.00
2024-04-12T01:40:04.699Z,89774.00
2024-04-12T01:41:04.717Z,89774.00
2024-04-12T01:42:04.753Z,89774.00
2024-04-12T01:43:04.780Z,89772.00
2024-04-12T01:44:04.842Z,89773.00
2024-04-12T01:45:04.938Z,89772.00
2024-04-12T01:46:04.967Z,89771.00
2024-04-12T01:47:05.034Z,89770.00
2024-04-12T01:48:05.164Z,89769.00
2024-04-12T01:49:05.356Z,89770.00
2024-04-12T01:50:05.221Z,89768.00
2024-04-12T01:51:05.351Z,89769.00
2024-04-12T01:52:05.346Z,89769.00
2024-04-12T01:53:05.391Z,89770.00
2024-04-12T01:54:05.512Z,89769.00
2024-04-12T01:55:05.547Z,89768.00
2024-04-12T01:56:05.549Z,89769.00
2024-04-12T01:57:05.616Z,89770.00
2024-04-12T01:58:05.577Z,89768.00
2024-04-12T01:59:05.605Z,89770.00
2024-04-12T02:00:05.695Z,89768.00
2024-04-12T02:01:05.655Z,89769.00
2024-04-12T02:02:05.648Z,89767.00
2024-04-12T02:03:05.838Z,89769.00
2024-04-12T02:04:05.972Z,89769.00
2024-04-12T02:05:05.789Z,89770.00
2024-04-12T02:06:05.929Z,89766.00
2024-04-12T02:07:05.875Z,89767.00
2024-04-12T02:08:05.854Z,89767.00
2024-04-12T02:09:05.951Z,89767.00
2024-04-12T02:10:05.913Z,89768.00
2024-04-12T02:11:05.956Z,89767.00
2024-04-12T02:12:05.995Z,89767.00
2024-04-12T02:13:05.970Z,89769.00
2024-04-12T02:14:05.989Z,89768.00
2024-04-12T02:15:06.092Z,89767.00
2024-04-12T02:16:06.055Z,89770.00
2024-04-12T02:17:06.080Z,89768.00
2024-04-12T02:18:06.305Z,89769.00
2024-04-12T02:19:06.243Z,89770.00
2024-04-12T02:20:06.181Z,89768.00
2024-04-12T02:21:06.341Z,89769.00
2024-04-12T02:22:06.219Z,89768.00
2024-04-12T02:23:06.425Z,89770.00
2024-04-12T02:24:06.316Z,89772.00
2024-04-12T02:25:06.282Z,89772.00
2024-04-12T02:26:06.325Z,89773.00
2024-04-12T02:27:06.433Z,89773.00
2024-04-12T02:28:06.360Z,89775.00
2024-04-12T02:29:06.384Z,89778.00
2024-04-12T02:30:06.431Z,89778.00
2024-04-12T02:31:06.415Z,89779.00
2024-04-12T02:32:06.474Z,89779.00
2024-04-12T02:33:06.545Z,89783.00
2024-04-12T02:34:06.485Z,89784.00
2024-04-12T02:35:06.495Z,89786.00
2024-04-12T02:36:06.647Z,89788.00
2024-04-12T02:37:06.624Z,89789.00
2024-04-12T02:38:06.674Z,89789.00
2024-04-12T02:39:06.806Z,89792.00
2024-04-12T02:40:06.803Z,89792.00
2024-04-12T02:41:06.873Z,89794.00
2024-04-12T02:42:06.978Z,89793.00
2024-04-12T02:43:06.937Z,89795.00
2024-04-12T02:44:06.928Z,89796.00
2024-04-12T02:45:07.057Z,89798.00
2024-04-12T02:46:06.948Z,89798.00
2024-04-12T02:47:06.970Z,89802.00
2024-04-12T02:48:07.073Z,89802.00
2024-04-12T02:49:06.964Z,89803.00
2024-04-12T02:50:06.954Z,89804.00
2024-04-12T02:51:07.122Z,89804.00
2024-04-12T02:52:07.017Z,89805.00
2024-04-12T02:53:07.071Z,89807.00
2024-04-12T02:54:07.125Z,89808.00
2024-04-12T02:55:07.090Z,89807.00
2024-04-12T02:56:07.098Z,89808.00
2024-04-12T02:57:07.168Z,89808.00
2024-04-12T02:58:07.095Z,89809.00
2024-04-12T02:59:07.141Z,89811.00
2024-04-12T03:00:07.191Z,89812.00
2024-04-12T03:01:07.245Z,89814.00
2024-04-12T03:02:07.339Z,89817.00
2024-04-12T03:03:07.401Z,89817.00
2024-04-12T03:04:07.326Z,89819.00
2024-04-12T03:05:07.313Z,89820.00
2024-04-12T03:06:07.378Z,89822.00
2024-04-12T03:07:07.311Z,89823.00
2024-04-12T03:08:07.311Z,89825.00
2024-04-12T03:09:07.450Z,89826.00
2024-04-12T03:10:07.359Z,89827.00
2024-04-12T03:11:07.389Z,89829.00
2024-04-12T03:12:07.343Z,89830.00
2024-04-12T03:13:07.338Z,89831.00
2024-04-12T03:14:07.373Z,89836.00
2024-04-12T03:15:07.525Z,89835.00
2024-04-12T03:16:07.533Z,89835.00
2024-04-12T03:17:07.532Z,89837.00
2024-04-12T03:18:07.688Z,89839.00
2024-04-12T03:19:07.590Z,89836.00
2024-04-12T03:20:07.736Z,89835.00
2024-04-12T03:21:07.734Z,89838.00
2024-04-12T03:22:07.759Z,89836.00
2024-04-12T03:23:07.821Z,89833.00
2024-04-12T03:24:07.801Z,89833.00
2024-04-12T03:25:07.808Z,89833.00
2024-04-12T03:26:07.817Z,89832.00
2024-04-12T03:27:07.861Z,89832.00
2024-04-12T03:28:07.821Z,89829.00
2024-04-12T03:29:07.868Z,89829.00
2024-04-12T03:30:07.906Z,89831.00
2024-04-12T03:31:07.874Z,89832.00
2024-04-12T03:32:07.900Z,89835.00
2024-04-12T03:33:07.985Z,89840.00
2024-04-12T03:34:08.248Z,89842.00
2024-04-12T03:35:07.962Z,89841.00
2024-04-12T03:36:08.100Z,89843.00
2024-04-12T03:37:08.035Z,89840.00
2024-04-12T03:38:08.068Z,89840.00
2024-04-12T03:39:08.173Z,89841.00
2024-04-12T03:40:08.181Z,89843.00
2024-04-12T03:41:08.234Z,89846.00
2024-04-12T03:42:08.358Z,89844.00
2024-04-12T03:43:08.347Z,89842.00
2024-04-12T03:44:08.426Z,89841.00
2024-04-12T03:45:08.521Z,89841.00
2024-04-12T03:46:08.560Z,89840.00
2024-04-12T03:47:08.696Z,89838.00
2024-04-12T03:48:08.770Z,89838.00
2024-04-12T03:49:08.783Z,89839.00
2024-04-12T03:50:08.798Z,89837.00
2024-04-12T03:51:08.979Z,89837.00
2024-04-12T03:52:08.905Z,89834.00
2024-04-12T03:53:08.937Z,89832.00
2024-04-12T03:54:08.946Z,89832.00
2024-04-12T03:55:08.943Z,89834.00
2024-04-12T03:56:08.977Z,89832.00
2024-04-12T03:57:09.054Z,89831.00
2024-04-12T03:58:09.016Z,89829.00
2024-04-12T03:59:09.012Z,89830.00
2024-04-12T04:00:09.116Z,89830.00
2024-04-12T04:01:09.041Z,89830.00
2024-04-12T04:02:09.110Z,89828.00
2024-04-12T04:03:09.153Z,89828.00
2024-04-12T04:04:09.147Z,89827.00
2024-04-12T04:05:09.079Z,89826.00
2024-04-12T04:06:09.095Z,89826.00
2024-04-12T04:07:09.099Z,89828.00
2024-04-12T04:08:09.091Z,89827.00
2024-04-12T04:09:09.102Z,89825.00
2024-04-12T04:10:09.069Z,89826.00
2024-04-12T04:11:09.129Z,89826.00
2024-04-12T04:12:09.121Z,89828.00
2024-04-12T04:13:09.097Z,89825.00
2024-04-12T04:14:09.089Z,89826.00
2024-04-12T04:15:09.125Z,89826.00
2024-04-12T04:16:09.088Z,89826.00
2024-04-12T04:17:09.075Z,89826.00
2024-04-12T04:18:09.195Z,89828.00
2024-04-12T04:19:09.171Z,89829.00
2024-04-12T04:20:09.685Z,89828.00
2024-04-12T04:21:16.912Z,89829.00
2024-04-12T04:22:16.901Z,89829.00
2024-04-12T04:23:16.915Z,89826.00
2024-04-12T04:24:16.910Z,89829.00
2024-04-12T04:25:16.915Z,89830.00
2024-04-12T04:26:16.923Z,89829.00
2024-04-12T04:27:16.924Z,89827.00
2024-04-12T04:28:16.920Z,89829.00
2024-04-12T04:29:16.907Z,89828.00
2024-04-12T04:30:16.935Z,89829.00
2024-04-12T04:31:24.116Z,89828.00
2024-04-12T04:32:24.160Z,89827.00
2024-04-12T04:33:24.173Z,89826.00
2024-04-12T04:34:24.117Z,89824.00
2024-04-12T04:35:24.114Z,89821.00
2024-04-12T04:36:24.148Z,89820.00
2024-04-12T04:37:32.929Z,89821.00
2024-04-12T04:38:25.133Z,89820.00
2024-04-12T04:39:24.131Z,89822.00
2024-04-12T04:40:24.136Z,89820.00
2024-04-12T04:41:27.358Z,89821.00
2024-04-12T04:42:24.149Z,89824.00
2024-04-12T04:43:24.138Z,89824.00
2024-04-12T04:44:24.139Z,89825.00
2024-04-12T04:45:24.258Z,89825.00
2024-04-12T04:46:24.153Z,89826.00
2024-04-12T04:47:24.164Z,89829.00
2024-04-12T04:48:24.461Z,89825.00
2024-04-12T04:49:24.237Z,89828.00
2024-04-12T04:50:24.154Z,89828.00
2024-04-12T04:51:24.225Z,89828.00
2024-04-12T04:52:24.151Z,89828.00
2024-04-12T04:53:24.151Z,89829.00
2024-04-12T04:54:24.159Z,89829.00
2024-04-12T04:55:24.162Z,89831.00
2024-04-12T04:56:24.178Z,89832.00
2024-04-12T04:57:24.158Z,89831.00
2024-04-12T04:58:24.162Z,89834.00
2024-04-12T04:59:24.165Z,89833.00
2024-04-12T05:00:24.832Z,89834.00
2024-04-12T05:01:24.169Z,89834.00
2024-04-12T05:02:24.200Z,89833.00
2024-04-12T05:03:24.246Z,89833.00
2024-04-12T05:04:24.182Z,89833.00
2024-04-12T05:05:26.062Z,89834.00
2024-04-12T05:06:24.192Z,89837.00
2024-04-12T05:07:24.184Z,89836.00
2024-04-12T05:08:24.176Z,89839.00
2024-04-12T05:09:24.180Z,89838.00
2024-04-12T05:10:24.191Z,89841.00
2024-04-12T05:11:24.187Z,89842.00
2024-04-12T05:12:24.248Z,89841.00
2024-04-12T05:13:24.194Z,89842.00
2024-04-12T05:14:24.191Z,89841.00
2024-04-12T05:15:24.200Z,89840.00
2024-04-12T05:16:24.269Z,89843.00
2024-04-12T05:17:24.290Z,89842.00
2024-04-12T05:18:24.334Z,89842.00
2024-04-12T05:19:24.203Z,89846.00
2024-04-12T05:20:24.223Z,89845.00
2024-04-12T05:21:24.283Z,89846.00
2024-04-12T05:22:24.292Z,89845.00
2024-04-12T05:23:24.206Z,89844.00
2024-04-12T05:24:24.219Z,89844.00
2024-04-12T05:25:24.307Z,89843.00
2024-04-12T05:26:24.249Z,89845.00
2024-04-12T05:27:24.382Z,89844.00
2024-04-12T05:28:24.299Z,89841.00
2024-04-12T05:29:24.351Z,89841.00
2024-04-12T05:30:24.369Z,89842.00
2024-04-12T05:31:24.416Z,89842.00
2024-04-12T05:32:24.527Z,89844.00
2024-04-12T05:33:24.960Z,89847.00
2024-04-12T05:34:24.560Z,89846.00
2024-04-12T05:35:24.612Z,89845.00
2024-04-12T05:36:24.701Z,89845.00
2024-04-12T05:37:24.708Z,89843.00
2024-04-12T05:38:24.767Z,89838.00
2024-04-12T05:39:24.785Z,89843.00
2024-04-12T05:40:24.836Z,89840.00
2024-04-12T05:41:24.864Z,89839.00
2024-04-12T05:42:24.914Z,89837.00
2024-04-12T05:43:25.032Z,89841.00
2024-04-12T05:44:25.040Z,89842.00
2024-04-12T05:45:25.129Z,89842.00
2024-04-12T05:46:25.126Z,89841.00
2024-04-12T05:47:25.160Z,89840.00
2024-04-12T05:48:25.391Z,89839.00
2024-04-12T05:49:25.098Z,89838.00
2024-04-12T05:50:25.109Z,89840.00
2024-04-12T05:51:26.327Z,89840.00
2024-04-12T05:52:25.125Z,89842.00
2024-04-12T05:53:25.115Z,89845.00
2024-04-12T05:54:25.114Z,89845.00
2024-04-12T05:55:25.129Z,89842.00
2024-04-12T05:56:25.115Z,89844.00
2024-04-12T05:57:25.120Z,89838.00
2024-04-12T05:58:25.175Z,89841.00
2024-04-12T05:59:25.127Z,89840.00
2024-04-12T06:00:25.208Z,89841.00
2024-04-12T06:01:25.148Z,89841.00
2024-04-12T06:02:25.161Z,89842.00
2024-04-12T06:03:25.199Z,89843.00
2024-04-12T06:04:25.231Z,89846.00
2024-04-12T06:05:25.139Z,89845.00
2024-04-12T06:06:25.663Z,89844.00
2024-04-12T06:07:25.144Z,89843.00
2024-04-12T06:08:25.148Z,89843.00
2024-04-12T06:09:25.243Z,89844.00
2024-04-12T06:10:25.161Z,89844.00
2024-04-12T06:11:25.213Z,89843.00
2024-04-12T06:12:25.182Z,89842.00
2024-04-12T06:13:25.158Z,89841.00
2024-04-12T06:14:25.254Z,89841.00
2024-04-12T06:15:25.220Z,89841.00
2024-04-12T06:16:25.898Z,89839.00
2024-04-12T06:17:25.322Z,89836.00
2024-04-12T06:18:25.377Z,89836.00
2024-04-12T06:19:25.288Z,89835.00
2024-04-12T06:20:25.324Z,89835.00
2024-04-12T06:21:25.338Z,89834.00
2024-04-12T06:22:25.312Z,89835.00
2024-04-12T06:23:28.604Z,89835.00
2024-04-12T06:24:25.328Z,89832.00
2024-04-12T06:25:25.315Z,89833.00
2024-04-12T06:26:25.312Z,89831.00
2024-04-12T06:27:25.327Z,89829.00
2024-04-12T06:28:25.317Z,89828.00
2024-04-12T06:29:32.831Z,89830.00
2024-04-12T06:30:26.370Z,89828.00
2024-04-12T06:31:25.320Z,89827.00
2024-04-12T06:32:25.428Z,89827.00
2024-04-12T06:33:25.388Z,89824.00
2024-04-12T06:34:25.356Z,89824.00
2024-04-12T06:35:25.323Z,89822.00
2024-04-12T06:36:25.315Z,89822.00
2024-04-12T06:37:25.341Z,89822.00
2024-04-12T06:38:25.332Z,89825.00
2024-04-12T06:39:25.335Z,89823.00
2024-04-12T06:40:25.325Z,89821.00
2024-04-12T06:41:25.365Z,89821.00
2024-04-12T06:42:25.447Z,89820.00
2024-04-12T06:43:25.471Z,89819.00
2024-04-12T06:44:25.510Z,89820.00
2024-04-12T06:45:25.592Z,89818.00
2024-04-12T06:46:25.648Z,89818.00
2024-04-12T06:47:25.753Z,89813.00
2024-04-12T06:48:25.836Z,89813.00
2024-04-12T06:49:25.756Z,89814.00
2024-04-12T06:50:25.773Z,89811.00
2024-04-12T06:51:25.789Z,89810.00
2024-04-12T06:52:25.761Z,89812.00
2024-04-12T06:53:25.763Z,89813.00
2024-04-12T06:54:25.841Z,89814.00
2024-04-12T06:55:25.758Z,89813.00
2024-04-12T06:56:25.756Z,89815.00
2024-04-12T06:57:25.772Z,89815.00
2024-04-12T06:58:25.758Z,89818.00
2024-04-12T06:59:25.758Z,89814.00
2024-04-12T07:00:25.814Z,89814.00
2024-04-12T07:01:25.789Z,89814.00
2024-04-12T07:02:26.147Z,89815.00
2024-04-12T07:03:25.971Z,89813.00
2024-04-12T07:04:25.884Z,89814.00
2024-04-12T07:05:25.942Z,89813.00
2024-04-12T07:06:25.910Z,89809.00
2024-04-12T07:07:25.966Z,89810.00
2024-04-12T07:08:25.942Z,89809.00
2024-04-12T07:09:25.968Z,89807.00
2024-04-12T07:10:25.986Z,89808.00
2024-04-12T07:11:26.085Z,89806.00
2024-04-12T07:12:26.258Z,89802.00
2024-04-12T07:13:26.095Z,89802.00
2024-04-12T07:14:26.131Z,89801.00
2024-04-12T07:15:26.105Z,89800.00
2024-04-12T07:16:26.131Z,89798.00
2024-04-12T07:17:26.232Z,89798.00
2024-04-12T07:18:26.207Z,89796.00
2024-04-12T07:19:26.098Z,89798.00
2024-04-12T07:20:28.209Z,89799.00
2024-04-12T07:21:26.113Z,89798.00
2024-04-12T07:22:26.121Z,89796.00
2024-04-12T07:23:26.130Z,89796.00
2024-04-12T07:24:26.122Z,89794.00
2024-04-12T07:25:26.109Z,89796.00
2024-04-12T07:26:26.382Z,89796.00
2024-04-12T07:27:26.140Z,89795.00
2024-04-12T07:28:26.117Z,89794.00
2024-04-12T07:29:26.130Z,89796.00
2024-04-12T07:30:26.127Z,89796.00
2024-04-12T07:31:26.143Z,89797.00
2024-04-12T07:32:26.177Z,89800.00
2024-04-12T07:33:26.419Z,89797.00
2024-04-12T07:34:26.146Z,89795.00
2024-04-12T07:35:26.434Z,89796.00
2024-04-12T07:36:26.146Z,89795.00
2024-04-12T07:37:26.156Z,89795.00
2024-04-12T07:38:26.142Z,89798.00
2024-04-12T07:39:26.151Z,89794.00
2024-04-12T07:40:26.145Z,89794.00
2024-04-12T07:41:26.168Z,89792.00
2024-04-12T07:42:26.137Z,89793.00
2024-04-12T07:43:26.139Z,89790.00
2024-04-12T07:44:26.139Z,89790.00
2024-04-12T07:45:26.165Z,89792.00
2024-04-12T07:46:26.140Z,89790.00
2024-04-12T07:47:26.159Z,89791.00
2024-04-12T07:48:29.709Z,89789.00
2024-04-12T07:49:26.153Z,89787.00
2024-04-12T07:50:26.158Z,89787.00
2024-04-12T07:51:26.149Z,89783.00
2024-04-12T07:52:26.147Z,89783.00
2024-04-12T07:53:26.174Z,89781.00
2024-04-12T07:54:26.162Z,89781.00
2024-04-12T07:55:26.158Z,89781.00
2024-04-12T07:56:26.161Z,89777.00
2024-04-12T07:57:26.167Z,89778.00
2024-04-12T07:58:26.171Z,89778.00
2024-04-12T07:59:26.187Z,89776.00
2024-04-12T08:00:26.267Z,89776.00
2024-04-12T08:01:26.308Z,89776.00
2024-04-12T08:02:27.040Z,89778.00
2024-04-12T08:03:26.374Z,89777.00
2024-04-12T08:04:26.378Z,89780.00
2024-04-12T08:05:26.337Z,89780.00
2024-04-12T08:06:26.379Z,89781.00
2024-04-12T08:07:29.179Z,89779.00
2024-04-12T08:08:26.429Z,89778.00
2024-04-12T08:09:26.429Z,89779.00
2024-04-12T08:10:26.468Z,89780.00
2024-04-12T08:11:26.433Z,89779.00
2024-04-12T08:12:26.478Z,89778.00
2024-04-12T08:13:26.449Z,89779.00
2024-04-12T08:14:26.448Z,89779.00
2024-04-12T08:15:26.480Z,89778.00
2024-04-12T08:16:26.461Z,89778.00
2024-04-12T08:17:26.641Z,89778.00
2024-04-12T08:18:26.542Z,89780.00
2024-04-12T08:19:26.480Z,89781.00
2024-04-12T08:20:26.458Z,89780.00
2024-04-12T08:21:26.501Z,89783.00
2024-04-12T08:22:26.481Z,89784.00
2024-04-12T08:23:26.452Z,89782.00
2024-04-12T08:24:27.640Z,89784.00
2024-04-12T08:25:26.497Z,89784.00
2024-04-12T08:26:26.475Z,89783.00
2024-04-12T08:27:26.863Z,89782.00
2024-04-12T08:28:26.470Z,89783.00
2024-04-12T08:29:26.478Z,89784.00
2024-04-12T08:30:26.489Z,89783.00
2024-04-12T08:31:26.464Z,89784.00
2024-04-12T08:32:26.482Z,89783.00
2024-04-12T08:33:26.610Z,89783.00
2024-04-12T08:34:26.458Z,89783.00
2024-04-12T08:35:26.842Z,89785.00
2024-04-12T08:36:26.570Z,89782.00
2024-04-12T08:37:26.540Z,89784.00
2024-04-12T08:38:26.514Z,89782.00
2024-04-12T08:39:26.516Z,89782.00
2024-04-12T08:40:27.308Z,89781.00
2024-04-12T08:41:26.517Z,89784.00
2024-04-12T08:42:26.526Z,89783.00
2024-04-12T08:43:26.532Z,89783.00
2024-04-12T08:44:26.539Z,89787.00
2024-04-12T08:45:26.547Z,89786.00
2024-04-12T08:46:26.533Z,89787.00
2024-04-12T08:47:26.650Z,89786.00
2024-04-12T08:48:26.760Z,89786.00
2024-04-12T08:49:26.682Z,89784.00
2024-04-12T08:50:26.694Z,89784.00
2024-04-12T08:51:26.704Z,89786.00
2024-04-12T08:52:26.713Z,89787.00
2024-04-12T08:53:26.717Z,89788.00
2024-04-12T08:54:26.762Z,89786.00
2024-04-12T08:55:26.750Z,89786.00
2024-04-12T08:56:26.753Z,89787.00
2024-04-12T08:57:26.769Z,89787.00
2024-04-12T08:58:26.765Z,89787.00
2024-04-12T08:59:26.759Z,89787.00
2024-04-12T09:00:28.894Z,89788.00
2024-04-12T09:01:26.975Z,89786.00
2024-04-12T09:02:26.778Z,89791.00
2024-04-12T09:03:27.659Z,89789.00
2024-04-12T09:04:26.997Z,89789.00
2024-04-12T09:05:26.904Z,89786.00
2024-04-12T09:06:26.966Z,89787.00
2024-04-12T09:07:26.974Z,89787.00
2024-04-12T09:08:29.187Z,89789.00
2024-04-12T09:09:27.055Z,89788.00
2024-04-12T09:10:26.990Z,89788.00
2024-04-12T09:11:27.084Z,89789.00
2024-04-12T09:12:27.003Z,89786.00
2024-04-12T09:13:28.647Z,89786.00
2024-04-12T09:14:30.004Z,89788.00
2024-04-12T09:15:27.003Z,89788.00
2024-04-12T09:16:27.016Z,89788.00
2024-04-12T09:17:27.154Z,89789.00
2024-04-12T09:18:27.052Z,89788.00
2024-04-12T09:19:27.196Z,89784.00
2024-04-12T09:20:27.009Z,89784.00
2024-04-12T09:21:27.488Z,89782.00
2024-04-12T09:22:27.026Z,89785.00
2024-04-12T09:23:27.029Z,89784.00
2024-04-12T09:24:27.015Z,89781.00
2024-04-12T09:25:27.026Z,89781.00
2024-04-12T09:26:27.562Z,89780.00
2024-04-12T09:27:27.049Z,89777.00
2024-04-12T09:28:27.052Z,89774.00
2024-04-12T09:29:27.034Z,89772.00
2024-04-12T09:30:27.037Z,89771.00
2024-04-12T09:31:27.052Z,89770.00
2024-04-12T09:32:27.075Z,89767.00
2024-04-12T09:33:27.155Z,89766.00
2024-04-12T09:34:27.119Z,89767.00
2024-04-12T09:35:27.047Z,89765.00
2024-04-12T09:36:27.127Z,89765.00
2024-04-12T09:37:27.200Z,89769.00
2024-04-12T09:38:27.243Z,89772.00
2024-04-12T09:39:27.285Z,89770.00
2024-04-12T09:40:27.257Z,89772.00
2024-04-12T09:41:27.225Z,89771.00
2024-04-12T09:42:27.231Z,89770.00
2024-04-12T09:43:27.229Z,89771.00
2024-04-12T09:44:27.247Z,89767.00
2024-04-12T09:45:27.268Z,89767.00
2024-04-12T09:46:27.270Z,89767.00
2024-04-12T09:47:27.399Z,89768.00
2024-04-12T09:48:27.393Z,89766.00
2024-04-12T09:49:27.411Z,89766.00
2024-04-12T09:50:27.393Z,89764.00
2024-04-12T09:51:27.585Z,89764.00
2024-04-12T09:52:27.394Z,89762.00
2024-04-12T09:53:27.400Z,89763.00
2024-04-12T09:54:27.423Z,89763.00
2024-04-12T09:55:27.389Z,89761.00
2024-04-12T09:56:27.418Z,89762.00
2024-04-12T09:57:27.478Z,89758.00
2024-04-12T09:58:27.411Z,89760.00
2024-04-12T09:59:27.417Z,89757.00
2024-04-12T10:00:27.424Z,89757.00
2024-04-12T10:01:27.431Z,89759.00
2024-04-12T10:02:27.426Z,89759.00
2024-04-12T10:03:27.547Z,89758.00
2024-04-12T10:04:27.439Z,89757.00
2024-04-12T10:05:27.444Z,89756.00
2024-04-12T10:06:27.447Z,89753.00
2024-04-12T10:07:27.443Z,89751.00
2024-04-12T10:08:27.436Z,89750.00
2024-04-12T10:09:27.438Z,89748.00
2024-04-12T10:10:27.451Z,89749.00
2024-04-12T10:11:27.498Z,89750.00
2024-04-12T10:12:27.463Z,89749.00
2024-04-12T10:13:27.444Z,89748.00
2024-04-12T10:14:27.462Z,89749.00
2024-04-12T10:15:27.482Z,89751.00
2024-04-12T10:16:27.461Z,89748.00
2024-04-12T10:17:27.566Z,89748.00
2024-04-12T10:18:27.658Z,89749.00
2024-04-12T10:19:27.447Z,89745.00
2024-04-12T10:20:27.466Z,89747.00
2024-04-12T10:21:27.458Z,89744.00
2024-04-12T10:22:27.485Z,89745.00
2024-04-12T10:23:27.472Z,89743.00
2024-04-12T10:24:27.473Z,89740.00
2024-04-12T10:25:27.454Z,89740.00
2024-04-12T10:26:27.881Z,89740.00
2024-04-12T10:27:27.568Z,89737.00
2024-04-12T10:28:27.646Z,89739.00
2024-04-12T10:29:27.669Z,89738.00
2024-04-12T10:30:27.754Z,89739.00
2024-04-12T10:31:27.757Z,89741.00
2024-04-12T10:32:27.852Z,89737.00
2024-04-12T10:33:27.827Z,89737.00
2024-04-12T10:34:27.781Z,89735.00
2024-04-12T10:35:27.801Z,89734.00
2024-04-12T10:36:27.888Z,89732.00
2024-04-12T10:37:27.786Z,89732.00
2024-04-12T10:38:36.965Z,89731.00
2024-04-12T10:39:28.870Z,89732.00
2024-04-12T10:40:27.764Z,89731.00
2024-04-12T10:41:27.763Z,89728.00
2024-04-12T10:42:27.770Z,89726.00
2024-04-12T10:43:27.766Z,89727.00
2024-04-12T10:44:27.770Z,89723.00
2024-04-12T10:45:27.852Z,89722.00
2024-04-12T10:46:27.806Z,89720.00
2024-04-12T10:47:27.766Z,89720.00
2024-04-12T10:48:27.873Z,89716.00
2024-04-12T10:49:27.769Z,89717.00
2024-04-12T10:50:27.767Z,89716.00
2024-04-12T10:51:27.773Z,89715.00
2024-04-12T10:52:27.787Z,89716.00
2024-04-12T10:53:27.805Z,89715.00
2024-04-12T10:54:27.839Z,89713.00
2024-04-12T10:55:27.902Z,89711.00
2024-04-12T10:56:27.943Z,89710.00
2024-04-12T10:57:28.053Z,89710.00
2024-04-12T10:58:28.061Z,89709.00
2024-04-12T10:59:28.470Z,89708.00
2024-04-12T11:00:28.105Z,89707.00
2024-04-12T11:01:28.667Z,89705.00
2024-04-12T11:02:28.230Z,89705.00
2024-04-12T11:03:28.308Z,89701.00
2024-04-12T11:04:28.397Z,89704.00
2024-04-12T11:05:28.420Z,89702.00
2024-04-12T11:06:28.387Z,89700.00
2024-04-12T11:07:28.441Z,89697.00
2024-04-12T11:08:28.461Z,89697.00
2024-04-12T11:09:28.570Z,89697.00
2024-04-12T11:10:28.608Z,89699.00
2024-04-12T11:11:28.627Z,89698.00
2024-04-12T11:12:28.631Z,89698.00
2024-04-12T11:13:28.681Z,89702.00
2024-04-12T11:14:28.715Z,89702.00
2024-04-12T11:15:28.783Z,89704.00
2024-04-12T11:16:28.789Z,89704.00
2024-04-12T11:17:28.922Z,89702.00
2024-04-12T11:18:29.187Z,89699.00
2024-04-12T11:19:28.931Z,89702.00
2024-04-12T11:20:28.957Z,89702.00
2024-04-12T11:21:28.992Z,89702.00
2024-04-12T11:22:29.033Z,89704.00
2024-04-12T11:23:29.066Z,89701.00
2024-04-12T11:24:29.107Z,89701.00
2024-04-12T11:25:29.163Z,89701.00
2024-04-12T11:26:29.141Z,89701.00
2024-04-12T11:27:29.229Z,89699.00
2024-04-12T11:28:29.152Z,89701.00
2024-04-12T11:29:29.150Z,89699.00
2024-04-12T11:30:29.150Z,89700.00
2024-04-12T11:31:29.196Z,89701.00
2024-04-12T11:32:30.252Z,89700.00
2024-04-12T11:33:33.927Z,89700.00
2024-04-12T11:34:32.215Z,89704.00
2024-04-12T11:35:30.316Z,89702.00
2024-04-12T11:36:29.171Z,89702.00
2024-04-12T11:37:29.199Z,89699.00
2024-04-12T11:38:29.175Z,89698.00
2024-04-12T11:39:29.241Z,89696.00
2024-04-12T11:40:29.191Z,89698.00
2024-04-12T11:41:29.187Z,89698.00
2024-04-12T11:42:29.186Z,89694.00
2024-04-12T11:43:29.209Z,89694.00
2024-04-12T11:44:29.204Z,89694.00